Time;durP1;ratioP1;P1;durP2;ratioP2;P2;SDS_P1;SDS_P2;PMS_P1;PMS_P2;Temp;Humidity;BMP_temperature;BMP_pressure;BME280_temperature;BME280_humidity;BME280_pressure;Samples;Min_cycle;Max_cycle;Signal;HPM_P1;HPM_P2
2021/08/26 00:06:26;;;;;;;18.93;5.03;;;;;;;15.64;75.99;101138.63;2619539;54;20189;-77
2021/08/26 00:08:53;;;;;;;20.77;4.73;;;;;;;15.57;76.37;101136.84;2619416;54;20223;-78
2021/08/26 00:11:23;;;;;;;21.43;5.13;;;;;;;15.52;76.48;101129.97;2619441;54;20175;-77
2021/08/26 00:13:51;;;;;;;21.40;5.30;;;;;;;15.37;77.22;101137.66;2619949;54;20193;-78
2021/08/26 00:16:18;;;;;;;23.20;5.23;;;;;;;15.42;76.99;101141.13;2619385;54;20172;-77
2021/08/26 00:18:43;;;;;;;18.63;5.10;;;;;;;15.44;76.94;101137.69;2619244;54;20162;-77
2021/08/26 00:21:08;;;;;;;22.80;5.23;;;;;;;15.33;77.38;101144.47;2619945;54;20128;-78
2021/08/26 00:23:33;;;;;;;23.97;5.97;;;;;;;15.39;76.80;101139.38;2620124;54;20942;-79
2021/08/26 00:25:59;;;;;;;17.47;4.87;;;;;;;15.36;76.79;101134.19;2619404;54;20139;-76
2021/08/26 00:28:24;;;;;;;19.53;4.97;;;;;;;15.29;77.60;101127.25;2620209;54;20147;-76
2021/08/26 00:30:49;;;;;;;17.27;5.03;;;;;;;15.31;77.40;101128.13;2620053;54;20143;-77
2021/08/26 00:33:15;;;;;;;22.07;5.63;;;;;;;15.27;77.72;101128.97;2619695;54;20345;-75
2021/08/26 00:35:41;;;;;;;15.13;4.60;;;;;;;15.24;78.09;101126.34;2619532;54;20136;-75
2021/08/26 00:38:06;;;;;;;19.97;5.13;;;;;;;15.32;78.30;101122.09;2619556;54;20702;-80
2021/08/26 00:40:31;;;;;;;19.83;5.23;;;;;;;15.29;78.24;101119.50;2619873;54;20170;-79
2021/08/26 00:43:00;;;;;;;19.43;4.90;;;;;;;15.36;77.15;101104.94;2619450;54;20691;-75
2021/08/26 00:45:28;;;;;;;21.33;5.03;;;;;;;15.38;77.42;101111.84;2619647;54;20143;-77
2021/08/26 00:47:53;;;;;;;24.50;5.67;;;;;;;15.20;78.11;101110.88;2619829;54;20178;-77
2021/08/26 00:50:18;;;;;;;21.00;4.73;;;;;;;15.15;78.21;101112.56;2620037;54;20132;-78
2021/08/26 00:52:46;;;;;;;19.77;4.97;;;;;;;15.23;78.45;101114.31;2620359;39;20559;-75
2021/08/26 00:55:13;;;;;;;22.53;6.07;;;;;;;15.20;78.35;101106.56;2619300;54;20151;-79
2021/08/26 00:57:38;;;;;;;21.13;5.37;;;;;;;15.35;77.51;101104.09;2619637;54;20142;-78
2021/08/26 01:00:09;;;;;;;21.30;5.20;;;;;;;15.32;77.69;101104.03;2620449;39;20555;-75
2021/08/26 01:03:03;;;;;;;26.03;5.93;;;;;;;15.30;78.00;101116.09;2619325;54;20186;-78
2021/08/26 01:05:38;;;;;;;23.53;5.27;;;;;;;15.24;78.67;101103.13;2619903;39;20605;-77
2021/08/26 01:08:16;;;;;;;23.80;5.07;;;;;;;15.30;78.07;101100.59;2620025;54;20656;-78
2021/08/26 01:10:43;;;;;;;20.00;4.97;;;;;;;15.14;78.55;101108.28;2618886;54;20155;-78
2021/08/26 01:13:09;;;;;;;22.27;5.70;;;;;;;15.37;77.67;101099.78;2620076;54;20147;-75
2021/08/26 01:15:34;;;;;;;17.97;5.23;;;;;;;15.23;77.96;101106.56;2619208;54;20159;-77
2021/08/26 01:18:00;;;;;;;19.93;5.33;;;;;;;15.06;79.31;101110.78;2619833;54;20135;-77
2021/08/26 01:20:25;;;;;;;17.80;5.13;;;;;;;15.16;78.91;101099.69;2619620;54;20683;-76
2021/08/26 01:22:51;;;;;;;23.50;6.10;;;;;;;15.08;78.81;101108.22;2619681;54;20166;-77
2021/08/26 01:25:19;;;;;;;21.07;5.03;;;;;;;15.01;79.19;101102.16;2619231;54;20159;-76
2021/08/26 01:27:57;;;;;;;21.57;6.10;;;;;;;14.97;79.24;101102.16;2619371;54;20135;-77
2021/08/26 01:30:25;;;;;;;25.83;5.63;;;;;;;14.84;80.23;101095.19;2619867;54;20174;-77
2021/08/26 01:32:53;;;;;;;20.47;5.17;;;;;;;14.82;80.10;101092.59;2619242;54;20175;-77
2021/08/26 01:35:19;;;;;;;22.20;5.57;;;;;;;14.98;79.57;101090.97;2619078;54;20167;-77
2021/08/26 01:37:44;;;;;;;20.63;5.23;;;;;;;14.80;79.90;101088.28;2619238;54;20270;-78
2021/08/26 01:40:10;;;;;;;25.27;5.17;;;;;;;14.81;80.25;101090.00;2620048;39;20588;-78
2021/08/26 01:42:36;;;;;;;20.93;5.83;;;;;;;14.75;80.34;101095.13;2620286;39;20552;-77
2021/08/26 01:45:03;;;;;;;18.00;4.77;;;;;;;14.78;80.11;101090.00;2619622;39;20895;-77
2021/08/26 01:47:29;;;;;;;19.40;5.47;;;;;;;14.84;79.89;101093.47;2619293;54;20151;-77
2021/08/26 01:49:54;;;;;;;22.67;5.57;;;;;;;14.74;80.10;101101.13;2619973;46;20151;-78
2021/08/26 01:52:21;;;;;;;24.27;6.03;;;;;;;14.62;81.08;101103.63;2619959;46;20149;-78
2021/08/26 01:54:51;;;;;;;19.97;5.47;;;;;;;14.58;81.23;101102.75;2619674;54;20157;-79
2021/08/26 01:57:18;;;;;;;21.23;5.37;;;;;;;14.70;80.58;101107.13;2619261;54;20162;-78
2021/08/26 01:59:45;;;;;;;18.63;5.13;;;;;;;14.63;80.87;101105.34;2620027;54;20182;-77
2021/08/26 02:02:10;;;;;;;20.27;5.20;;;;;;;14.72;80.42;101103.69;2619096;54;20187;-76
2021/08/26 02:04:35;;;;;;;21.33;5.23;;;;;;;14.67;80.36;101099.34;2619929;39;20595;-78
2021/08/26 02:07:00;;;;;;;23.03;5.30;;;;;;;14.57;80.83;101107.88;2619664;47;20144;-78
2021/08/26 02:09:26;;;;;;;17.97;5.37;;;;;;;14.51;81.17;101111.28;2618980;54;20180;-78
2021/08/26 02:11:51;;;;;;;20.03;5.13;;;;;;;14.47;81.28;101121.56;2619406;46;20219;-78
2021/08/26 02:14:16;;;;;;;16.20;4.60;;;;;;;14.43;81.50;101124.94;2619375;54;20166;-76
2021/08/26 02:16:41;;;;;;;19.77;5.20;;;;;;;14.53;80.81;101121.59;2619496;47;20123;-76
2021/08/26 02:19:07;;;;;;;20.17;5.10;;;;;;;14.47;81.19;101117.28;2619816;46;20139;-76
2021/08/26 02:21:32;;;;;;;17.60;4.30;;;;;;;14.55;80.98;101115.59;2619808;46;20147;-79
2021/08/26 02:23:58;;;;;;;20.60;5.30;;;;;;;14.49;81.27;101117.25;2620326;31;20635;-78
2021/08/26 02:26:23;;;;;;;22.33;5.60;;;;;;;14.58;81.10;101109.59;2619564;54;20756;-79
2021/08/26 02:28:49;;;;;;;26.03;5.23;;;;;;;14.64;80.89;101101.94;2619741;47;20155;-77
2021/08/26 02:31:14;;;;;;;23.30;5.13;;;;;;;14.57;80.67;101095.00;2619719;39;20564;-79
2021/08/26 02:33:39;;;;;;;12.77;4.60;;;;;;;14.48;81.03;101098.38;2618526;54;20169;-77
2021/08/26 02:36:05;;;;;;;21.27;5.50;;;;;;;14.42;81.44;101106.06;2619181;47;20151;-78
2021/08/26 02:38:30;;;;;;;19.67;5.57;;;;;;;14.41;81.15;101101.75;2619493;47;20158;-76
2021/08/26 02:40:55;;;;;;;20.63;5.67;;;;;;;14.48;81.28;101100.09;2619667;54;20127;-75
2021/08/26 02:43:21;;;;;;;22.73;4.77;;;;;;;14.44;81.22;101098.31;2619321;54;20238;-76
2021/08/26 02:45:46;;;;;;;22.63;5.37;;;;;;;14.38;81.39;101099.16;2619832;46;20131;-78
2021/08/26 02:48:11;;;;;;;23.50;5.93;;;;;;;14.41;81.45;101109.47;2619544;47;20151;-77
2021/08/26 02:50:36;;;;;;;22.47;5.20;;;;;;;14.31;81.71;101102.53;2619562;54;20151;-79
2021/08/26 02:53:02;;;;;;;20.00;4.53;;;;;;;14.26;81.80;101095.59;2619585;54;20170;-77
2021/08/26 02:55:27;;;;;;;24.07;5.40;;;;;;;14.23;81.83;101099.00;2619565;54;20147;-78
2021/08/26 02:57:52;;;;;;;24.97;5.67;;;;;;;14.27;81.85;101094.78;2619243;54;20139;-79
2021/08/26 03:00:18;;;;;;;25.40;5.63;;;;;;;14.32;81.57;101083.63;2619431;47;20159;-76
2021/08/26 03:02:43;;;;;;;18.80;5.17;;;;;;;14.28;81.43;101086.19;2619405;54;20194;-80
2021/08/26 03:05:09;;;;;;;14.13;3.93;;;;;;;14.19;81.70;101092.09;2618970;54;20715;-77
2021/08/26 03:07:34;;;;;;;21.27;5.80;;;;;;;14.22;82.17;101086.16;2619338;54;20230;-75
2021/08/26 03:09:59;;;;;;;13.90;4.37;;;;;;;14.17;82.07;101091.22;2619504;54;20182;-77
2021/08/26 03:12:24;;;;;;;20.77;5.67;;;;;;;14.20;81.93;101092.94;2619584;54;20176;-76
2021/08/26 03:14:49;;;;;;;23.63;5.80;;;;;;;14.09;82.07;101092.00;2621124;39;20680;-79
2021/08/26 03:17:15;;;;;;;20.17;5.20;;;;;;;14.11;82.06;101080.88;2620074;47;20151;-78
2021/08/26 03:19:40;;;;;;;21.10;5.30;;;;;;;14.07;82.22;101094.56;2620466;54;20155;-79
2021/08/26 03:22:05;;;;;;;18.60;5.37;;;;;;;14.01;82.21;101094.50;2620489;54;20665;-78
2021/08/26 03:24:31;;;;;;;20.10;5.10;;;;;;;14.00;82.27;101092.75;2619881;47;20696;-77
2021/08/26 03:26:56;;;;;;;16.20;4.63;;;;;;;14.02;82.45;101095.34;2619849;54;20159;-77
2021/08/26 03:29:21;;;;;;;21.53;5.67;;;;;;;14.05;82.35;101096.22;2620198;46;20707;-76
2021/08/26 03:31:46;;;;;;;20.30;5.40;;;;;;;14.13;82.60;101092.03;2620033;54;20159;-78
2021/08/26 03:34:12;;;;;;;17.30;4.93;;;;;;;14.08;82.87;101095.44;2620812;39;20580;-78
2021/08/26 03:36:37;;;;;;;17.30;4.80;;;;;;;14.02;82.86;101093.66;2620105;54;20138;-77
2021/08/26 03:39:02;;;;;;;19.70;4.80;;;;;;;14.03;83.11;101092.78;2619916;54;20248;-78
2021/08/26 03:41:27;;;;;;;22.07;5.10;;;;;;;14.05;83.20;101090.25;2619904;54;20128;-78
2021/08/26 03:43:53;;;;;;;18.37;4.67;;;;;;;14.10;83.16;101094.59;2619911;54;20163;-78
2021/08/26 03:46:18;;;;;;;21.30;5.83;;;;;;;14.21;82.76;101094.69;2619279;54;20162;-77
2021/08/26 03:48:43;;;;;;;22.57;5.93;;;;;;;14.26;82.57;101093.03;2619731;54;20135;-77
2021/08/26 03:51:09;;;;;;;19.37;5.07;;;;;;;14.24;82.74;101089.59;2620226;39;20578;-79
2021/08/26 03:53:34;;;;;;;20.30;5.43;;;;;;;14.30;82.82;101094.78;2619460;54;20155;-76
2021/08/26 03:55:59;;;;;;;20.57;6.10;;;;;;;14.29;82.75;101095.63;2619653;54;20159;-77
2021/08/26 03:58:25;;;;;;;25.60;6.13;;;;;;;14.35;82.66;101103.41;2619746;39;20638;-76
2021/08/26 04:00:50;;;;;;;22.23;6.03;;;;;;;14.37;82.79;101105.16;2619941;54;20180;-78
2021/08/26 04:03:15;;;;;;;24.17;6.87;;;;;;;14.50;82.71;101103.56;2620185;39;20840;-81
2021/08/26 04:05:41;;;;;;;23.57;5.70;;;;;;;14.54;82.41;101095.00;2619657;54;20167;-79
2021/08/26 04:08:06;;;;;;;23.30;5.63;;;;;;;14.56;82.32;101098.44;2620548;54;20680;-75
2021/08/26 04:10:31;;;;;;;25.60;5.47;;;;;;;14.47;82.32;101098.38;2619894;54;20143;-76
2021/08/26 04:12:57;;;;;;;23.23;5.57;;;;;;;14.46;82.59;101091.50;2619249;47;20189;-77
2021/08/26 04:15:22;;;;;;;20.63;5.50;;;;;;;14.61;82.88;101086.44;2620252;54;20143;-76
2021/08/26 04:17:47;;;;;;;21.40;5.20;;;;;;;14.54;82.68;101089.84;2619718;46;20136;-77
2021/08/26 04:20:13;;;;;;;23.57;5.90;;;;;;;14.48;82.90;101094.94;2619821;47;20177;-76
2021/08/26 04:22:38;;;;;;;21.47;5.50;;;;;;;14.53;83.00;101085.50;2619900;54;20174;-79
2021/08/26 04:25:04;;;;;;;23.87;6.20;;;;;;;14.56;82.58;101085.53;2619285;54;20230;-77
2021/08/26 04:27:30;;;;;;;21.67;5.47;;;;;;;14.53;82.77;101085.50;2619716;54;20672;-78
2021/08/26 04:29:55;;;;;;;17.23;5.53;;;;;;;14.53;83.01;101085.50;2619844;54;20170;-75
2021/08/26 04:32:20;;;;;;;24.43;6.03;;;;;;;14.56;82.96;101088.13;2619610;54;20188;-78
2021/08/26 04:34:45;;;;;;;21.53;5.50;;;;;;;14.54;83.05;101076.97;2619843;54;20132;-76
2021/08/26 04:37:11;;;;;;;20.73;5.60;;;;;;;14.52;83.04;101094.09;2619711;54;20647;-78
2021/08/26 04:39:36;;;;;;;19.37;4.73;;;;;;;14.49;83.15;101094.94;2619984;47;20145;-75
2021/08/26 04:42:01;;;;;;;22.33;5.23;;;;;;;14.54;83.16;101095.84;2620889;39;20523;-77
2021/08/26 04:44:28;;;;;;;16.90;5.17;;;;;;;14.53;83.19;101100.97;2619306;54;20175;-77
2021/08/26 04:46:53;;;;;;;25.60;5.70;;;;;;;14.56;83.00;101098.44;2619874;54;20155;-77
2021/08/26 04:49:18;;;;;;;22.50;5.70;;;;;;;14.54;83.09;101095.84;2619625;47;20158;-77
2021/08/26 04:51:44;;;;;;;18.67;5.10;;;;;;;14.61;83.09;101097.63;2619459;54;20139;-78
2021/08/26 04:54:09;;;;;;;23.53;5.90;;;;;;;14.61;82.89;101094.16;2619790;46;20124;-78
2021/08/26 04:56:34;;;;;;;18.50;4.90;;;;;;;14.63;82.83;101082.13;2619602;54;20239;-77
2021/08/26 04:58:59;;;;;;;20.10;5.17;;;;;;;14.69;82.59;101088.19;2619414;47;20139;-78
2021/08/26 05:01:25;;;;;;;16.00;5.33;;;;;;;14.68;82.55;101089.06;2619429;47;20136;-76
2021/08/26 05:03:50;;;;;;;19.63;4.83;;;;;;;14.70;82.58;101081.34;2619772;47;20201;-78
2021/08/26 05:06:15;;;;;;;21.70;5.17;;;;;;;14.72;82.33;101082.19;2619761;39;20591;-76
2021/08/26 05:08:40;;;;;;;21.23;5.37;;;;;;;14.81;81.94;101095.16;2619296;54;20149;-77
2021/08/26 05:11:06;;;;;;;24.57;5.20;;;;;;;14.87;81.79;101083.16;2619158;54;20123;-77
2021/08/26 05:13:31;;;;;;;22.33;5.37;;;;;;;14.84;81.96;101090.03;2619221;46;20159;-77
2021/08/26 05:15:56;;;;;;;16.47;4.60;;;;;;;14.80;81.84;101090.84;2619717;54;20175;-77
2021/08/26 05:18:21;;;;;;;19.30;4.83;;;;;;;14.81;82.10;101093.44;2618895;54;21169;-77
2021/08/26 05:20:47;;;;;;;18.30;5.17;;;;;;;14.84;82.19;101083.16;2619203;54;20132;-77
2021/08/26 05:23:12;;;;;;;17.03;4.63;;;;;;;14.79;82.22;101076.25;2619438;54;20133;-80
2021/08/26 05:25:37;;;;;;;17.10;4.70;;;;;;;14.86;81.94;101083.16;2619433;54;20170;-77
2021/08/26 05:28:03;;;;;;;18.43;4.63;;;;;;;14.87;81.95;101078.00;2620478;39;20519;-76
2021/08/26 05:30:28;;;;;;;18.17;5.93;;;;;;;14.86;82.20;101083.16;2636358;36;20242;-79
2021/08/26 05:32:55;;;;;;;17.80;4.63;;;;;;;14.98;81.50;101083.22;2619733;54;20133;-78
2021/08/26 05:35:20;;;;;;;22.57;5.43;;;;;;;15.04;81.77;101091.88;2618618;54;20115;-77
2021/08/26 05:37:46;;;;;;;17.17;5.13;;;;;;;15.07;81.38;101080.69;2618555;54;20173;-77
2021/08/26 05:40:11;;;;;;;22.40;5.53;;;;;;;15.15;80.43;101082.44;2618648;54;20168;-76
2021/08/26 05:42:36;;;;;;;17.47;4.80;;;;;;;15.17;80.75;101088.50;2616708;54;20135;-77
2021/08/26 05:45:02;;;;;;;17.93;5.33;;;;;;;15.20;80.41;101091.06;2616629;47;20127;-78
2021/08/26 05:47:28;;;;;;;16.83;4.90;;;;;;;15.26;80.59;101096.28;2616424;54;20116;-77
2021/08/26 05:49:53;;;;;;;15.60;4.53;;;;;;;15.16;81.13;101091.06;2616543;54;20148;-78
2021/08/26 05:52:18;;;;;;;20.03;4.63;;;;;;;15.13;81.20;101089.34;2634437;36;20194;-79
2021/08/26 05:54:43;;;;;;;20.37;4.83;;;;;;;15.28;80.90;101084.25;2615588;54;20131;-78
2021/08/26 05:57:09;;;;;;;17.97;4.37;;;;;;;15.37;79.81;101086.03;2615036;47;20138;-77
2021/08/26 05:59:34;;;;;;;15.43;4.97;;;;;;;15.41;79.82;101086.03;2615954;54;20119;-78
2021/08/26 06:02:00;;;;;;;20.17;4.53;;;;;;;15.34;80.06;101081.69;2616042;47;20151;-77
2021/08/26 06:04:26;;;;;;;15.63;4.40;;;;;;;15.40;79.85;101086.91;2615964;54;20123;-75
2021/08/26 06:06:51;;;;;;;21.53;5.07;;;;;;;15.41;80.15;101087.75;2616128;54;20123;-78
2021/08/26 06:09:16;;;;;;;23.23;4.63;;;;;;;15.49;79.94;101079.19;2615494;54;20160;-77
2021/08/26 06:11:42;;;;;;;19.30;5.17;;;;;;;15.50;80.03;101082.63;2615492;54;20139;-77
2021/08/26 06:14:08;;;;;;;22.57;5.40;;;;;;;15.50;80.29;101105.84;2616297;39;20546;-78
2021/08/26 06:16:33;;;;;;;16.43;4.70;;;;;;;15.60;79.65;101108.47;2615167;47;20247;-78
2021/08/26 06:18:59;;;;;;;21.83;5.80;;;;;;;15.60;79.65;101102.44;2616020;47;20116;-76
2021/08/26 06:21:24;;;;;;;19.60;5.23;;;;;;;15.63;79.11;101105.91;2615893;54;20123;-76
2021/08/26 06:23:49;;;;;;;16.80;5.17;;;;;;;15.68;79.38;101113.66;2615954;46;20282;-77
2021/08/26 06:26:15;;;;;;;24.60;5.40;;;;;;;15.75;78.99;101105.09;2616093;46;20254;-77
2021/08/26 06:28:40;;;;;;;20.33;4.97;;;;;;;15.81;78.09;101112.84;2616194;54;20254;-77
2021/08/26 06:31:05;;;;;;;13.33;4.37;;;;;;;15.77;78.77;101114.56;2616361;47;20135;-78
2021/08/26 06:33:30;;;;;;;16.70;4.70;;;;;;;15.73;78.48;101124.88;2633661;36;20203;-78
2021/08/26 06:35:56;;;;;;;18.17;4.90;;;;;;;15.90;77.76;101123.19;2615489;46;20641;-76
2021/08/26 06:38:21;;;;;;;15.90;4.33;;;;;;;15.73;78.18;101135.19;2616106;54;20130;-78
2021/08/26 06:40:47;;;;;;;18.73;5.37;;;;;;;15.67;78.29;101140.34;2615939;54;20116;-78
2021/08/26 06:43:12;;;;;;;16.43;4.90;;;;;;;15.69;78.29;101126.59;2616062;54;20668;-78
2021/08/26 06:45:37;;;;;;;16.10;3.90;;;;;;;15.68;78.27;101130.03;2615956;47;20231;-76
2021/08/26 06:48:03;;;;;;;18.87;4.67;;;;;;;15.74;78.06;101124.03;2615833;54;20139;-75
2021/08/26 06:50:28;;;;;;;15.77;4.47;;;;;;;15.72;78.07;101129.19;2616365;54;20115;-77
2021/08/26 06:52:53;;;;;;;16.13;4.57;;;;;;;15.87;77.35;101125.75;2616392;54;20131;-77
2021/08/26 06:55:19;;;;;;;16.53;3.93;;;;;;;15.90;76.52;101115.44;2616140;47;20150;-75
2021/08/26 06:57:44;;;;;;;11.73;3.70;;;;;;;15.83;77.00;101124.03;2615974;54;20139;-77
2021/08/26 07:00:10;;;;;;;15.57;4.17;;;;;;;15.92;76.86;101126.63;2616072;54;20120;-77
2021/08/26 07:02:35;;;;;;;13.07;4.00;;;;;;;15.95;76.83;101130.13;2616109;54;20142;-78
2021/08/26 15:34:38;;;;;;;4.60;0.90;;;;;;;18.11;56.25;101188.44;2616433;54;20505;-72
2021/08/26 16:03:45;;;;;;;4.63;1.30;;;;;;;17.73;58.78;101193.81;2715223;36;27970;-80
2021/08/26 16:06:10;;;;;;;4.63;1.13;;;;;;;17.62;59.35;101192.13;2625422;54;20166;-79
2021/08/26 16:08:36;;;;;;;3.27;1.27;;;;;;;17.69;58.45;101194.69;2625461;54;20131;-80
2021/08/26 16:11:02;;;;;;;3.83;1.40;;;;;;;17.63;59.94;101204.19;2626034;54;20131;-80
2021/08/26 16:13:28;;;;;;;4.07;1.40;;;;;;;17.48;59.57;101202.53;2625550;54;20154;-79
2021/08/26 16:15:53;;;;;;;4.97;1.80;;;;;;;17.63;59.46;101205.06;2625396;51;20131;-79
2021/08/26 16:18:18;;;;;;;3.47;1.50;;;;;;;17.83;58.31;101194.63;2625732;54;20162;-80
2021/08/26 16:20:45;;;;;;;4.90;1.60;;;;;;;17.60;58.13;101207.66;2625703;54;20157;-80
2021/08/26 16:23:12;;;;;;;4.00;1.90;;;;;;;17.63;57.28;101196.44;2638980;36;20213;-80
2021/08/26 16:25:39;;;;;;;4.23;1.70;;;;;;;17.37;57.98;101195.63;2625120;47;20131;-80
2021/08/26 16:28:04;;;;;;;5.07;1.70;;;;;;;17.31;59.38;101206.84;2625702;54;20697;-79
2021/08/26 16:30:30;;;;;;;5.67;2.00;;;;;;;17.26;59.16;101206.00;2626016;54;20154;-81
2021/08/26 16:32:55;;;;;;;8.87;1.53;;;;;;;16.98;59.12;101199.16;2623874;47;20262;-79
2021/08/26 16:35:21;;;;;;;3.43;1.40;;;;;;;17.15;59.32;101197.41;2624560;54;20138;-79
2021/08/26 16:37:47;;;;;;;4.63;1.50;;;;;;;17.14;60.14;101197.41;2623589;54;20166;-80
2021/08/26 16:40:14;;;;;;;4.57;1.60;;;;;;;17.25;60.21;101212.06;2624045;54;20159;-78
2021/08/26 16:42:39;;;;;;;3.20;1.20;;;;;;;17.09;60.07;101206.91;2624367;54;20158;-78
2021/08/26 16:45:07;;;;;;;4.70;1.33;;;;;;;17.22;59.85;101209.47;2624664;54;20123;-79
2021/08/26 16:47:32;;;;;;;4.20;1.37;;;;;;;17.12;60.23;101215.53;2624333;54;20135;-79
2021/08/26 16:49:58;;;;;;;5.10;1.70;;;;;;;17.13;59.99;101209.47;2622425;54;20147;-78
2021/08/26 16:52:23;;;;;;;3.13;1.33;;;;;;;16.87;60.28;101212.94;2620502;51;20191;-78
2021/08/26 16:54:48;;;;;;;2.53;1.30;;;;;;;17.12;60.25;101214.66;2621507;39;20530;-79
2021/08/26 16:57:14;;;;;;;2.53;1.27;;;;;;;17.13;59.96;101214.66;2621202;39;20601;-78
2021/08/26 16:59:39;;;;;;;3.97;2.00;;;;;;;16.95;61.49;101211.22;2620564;54;20142;-78
2021/08/26 17:02:04;;;;;;;5.50;1.60;;;;;;;16.98;61.14;101204.31;2619498;54;20136;-78
2021/08/26 17:04:30;;;;;;;4.27;1.43;;;;;;;16.90;61.33;101213.81;2617232;54;20173;-80
2021/08/26 17:06:56;;;;;;;3.67;1.57;;;;;;;16.80;61.75;101204.31;2618963;46;20525;-80
2021/08/26 17:09:22;;;;;;;3.83;1.70;;;;;;;16.82;61.29;101218.13;2619483;54;20142;-79
2021/08/26 17:11:47;;;;;;;5.03;1.97;;;;;;;16.76;61.70;101214.69;2620353;54;20135;-80
2021/08/26 17:14:12;;;;;;;3.73;1.37;;;;;;;16.72;62.63;101224.16;2620004;54;20155;-80
2021/08/26 17:16:38;;;;;;;3.83;1.73;;;;;;;16.65;62.41;101218.97;2620156;54;20127;-78
2021/08/26 17:19:03;;;;;;;4.33;1.63;;;;;;;16.75;61.76;101220.69;2620563;54;20135;-79
2021/08/26 17:21:28;;;;;;;3.80;1.40;;;;;;;16.67;62.43;101214.69;2619951;54;20131;-79
2021/08/26 17:23:54;;;;;;;3.73;1.47;;;;;;;16.68;62.30;101221.56;2620610;54;20193;-79
2021/08/26 17:26:19;;;;;;;7.37;1.80;;;;;;;16.73;62.30;101215.56;2620545;54;20166;-80
2021/08/26 17:28:44;;;;;;;3.80;1.70;;;;;;;16.85;62.37;101220.72;2621052;54;20127;-79
2021/08/26 17:31:09;;;;;;;2.63;1.40;;;;;;;16.77;62.42;101219.00;2620123;54;20135;-81
2021/08/26 17:33:35;;;;;;;4.53;1.63;;;;;;;16.65;62.30;101219.84;2621122;47;20976;-80
2021/08/26 17:36:00;;;;;;;4.17;1.50;;;;;;;16.55;62.77;101222.41;2620263;54;20127;-81
2021/08/26 17:38:25;;;;;;;3.83;1.57;;;;;;;16.56;63.05;101226.72;2621296;46;20139;-80
2021/08/26 17:40:51;;;;;;;5.20;1.83;;;;;;;16.37;63.63;101224.94;2621206;54;20175;-80
2021/08/26 17:43:16;;;;;;;3.10;1.40;;;;;;;16.41;63.32;101219.81;2620496;54;20143;-80
2021/08/26 17:45:41;;;;;;;4.17;1.50;;;;;;;16.43;63.73;101215.50;2620218;54;20142;-79
2021/08/26 17:48:06;;;;;;;3.43;1.13;;;;;;;16.41;63.96;101213.78;2621290;54;20139;-79
2021/08/26 17:50:32;;;;;;;4.40;1.70;;;;;;;16.35;64.00;101214.59;2620946;54;20239;-79
2021/08/26 17:52:59;;;;;;;4.93;1.40;;;;;;;16.40;63.89;101219.81;2621274;54;20182;-80
2021/08/26 17:55:24;;;;;;;4.30;1.73;;;;;;;16.42;64.14;101223.25;2621002;54;20663;-79
2021/08/26 17:57:49;;;;;;;5.50;1.60;;;;;;;16.37;64.42;101223.22;2620801;54;20163;-80
2021/08/26 18:00:18;;;;;;;7.77;1.93;;;;;;;16.36;64.25;101224.09;2620012;54;20681;-80
2021/08/26 18:02:45;;;;;;;4.33;1.37;;;;;;;16.44;63.72;101224.97;2619386;54;20683;-77
2021/08/26 18:05:12;;;;;;;5.80;1.57;;;;;;;16.28;64.39;101235.25;2619146;54;20179;-78
2021/08/26 18:07:37;;;;;;;3.57;1.53;;;;;;;16.23;64.05;101237.84;2620170;54;20124;-78
2021/08/26 18:10:04;;;;;;;4.93;1.70;;;;;;;16.09;64.53;101229.19;2619341;39;20543;-78
2021/08/26 18:12:29;;;;;;;5.27;1.40;;;;;;;16.13;64.43;101233.50;2619303;54;20127;-77
2021/08/26 18:14:54;;;;;;;4.00;1.40;;;;;;;16.18;64.06;101234.38;2619317;54;20135;-80
2021/08/26 18:17:19;;;;;;;3.87;1.20;;;;;;;16.26;63.23;101232.66;2618967;54;20147;-79
2021/08/26 18:19:45;;;;;;;4.07;1.37;;;;;;;16.07;63.74;101233.47;2619865;39;20539;-78
2021/08/26 18:22:10;;;;;;;2.60;1.30;;;;;;;16.16;64.00;101230.06;2618491;47;20130;-79
2021/08/26 18:24:35;;;;;;;4.53;1.20;;;;;;;16.12;63.75;101229.16;2620955;47;20159;-78
2021/08/26 18:27:01;;;;;;;3.80;1.17;;;;;;;16.16;63.49;101230.91;2619552;46;20131;-77
2021/08/26 18:29:26;;;;;;;3.00;1.20;;;;;;;16.15;63.53;101230.91;2620173;54;20158;-78
2021/08/26 18:31:52;;;;;;;4.93;1.70;;;;;;;16.09;64.10;101231.78;2619237;47;20743;-78
2021/08/26 18:34:18;;;;;;;3.47;1.33;;;;;;;15.94;63.48;101229.09;2620224;54;20146;-81
2021/08/26 18:36:43;;;;;;;3.30;1.30;;;;;;;15.94;64.48;101230.84;2620327;47;20183;-79
2021/08/26 18:39:09;;;;;;;1.77;0.90;;;;;;;15.69;64.94;101229.88;2619012;39;20612;-77
2021/08/26 18:41:34;;;;;;;3.60;1.17;;;;;;;15.73;64.42;101238.50;2619167;54;20166;-78
2021/08/26 18:43:59;;;;;;;4.00;1.30;;;;;;;15.78;64.10;101234.19;2618687;47;20175;-78
2021/08/26 18:46:24;;;;;;;3.83;1.60;;;;;;;15.74;64.42;101233.34;2618274;54;20127;-77
2021/08/26 18:48:50;;;;;;;2.93;1.20;;;;;;;15.73;64.92;101238.50;2619037;54;20691;-77
2021/08/26 18:51:16;;;;;;;3.63;1.13;;;;;;;15.60;65.30;101247.03;2618566;47;20143;-78
2021/08/26 18:53:42;;;;;;;6.57;1.20;;;;;;;15.38;66.23;101253.78;2618956;54;20143;-78
2021/08/26 18:56:08;;;;;;;3.60;1.30;;;;;;;15.33;66.13;101258.00;2618408;54;20704;-78
2021/08/26 18:58:33;;;;;;;2.23;1.10;;;;;;;15.44;66.12;101256.41;2618447;47;20150;-78
2021/08/26 19:00:58;;;;;;;7.37;1.20;;;;;;;15.46;66.46;101259.88;2618973;54;20135;-78
2021/08/26 19:03:23;;;;;;;8.60;1.23;;;;;;;15.34;66.66;101261.50;2620124;47;20140;-78
2021/08/26 19:05:49;;;;;;;2.70;1.03;;;;;;;15.25;67.25;101272.59;2618797;54;20204;-78
2021/08/26 19:08:16;;;;;;;2.60;0.97;;;;;;;15.36;67.02;101270.97;2619179;54;20123;-78
2021/08/26 19:10:42;;;;;;;3.70;1.47;;;;;;;15.34;67.10;101264.09;2618286;47;20143;-77
2021/08/26 19:13:08;;;;;;;6.00;1.67;;;;;;;15.38;67.22;101271.84;2620337;54;20147;-78
2021/08/26 19:15:33;;;;;;;4.03;1.40;;;;;;;15.49;66.70;101267.63;2621384;39;20294;-77
2021/08/26 19:18:00;;;;;;;2.97;1.37;;;;;;;15.47;67.31;101261.56;2621072;46;20132;-79
2021/08/26 19:20:25;;;;;;;3.60;1.33;;;;;;;15.34;67.63;101270.09;2621489;39;20808;-79
2021/08/26 19:22:51;;;;;;;3.07;1.20;;;;;;;15.33;67.44;101259.75;2620104;54;20151;-81
2021/08/26 19:25:16;;;;;;;6.30;1.50;;;;;;;15.47;66.74;101271.06;2620011;54;20131;-78
2021/08/26 19:27:41;;;;;;;4.47;1.23;;;;;;;15.43;66.69;101265.00;2619934;54;20132;-78
2021/08/26 19:30:07;;;;;;;5.50;1.60;;;;;;;15.40;66.99;101270.16;2620891;39;20542;-78
2021/08/26 19:32:33;;;;;;;4.93;1.50;;;;;;;15.58;66.96;101277.13;2620571;39;20549;-78
2021/08/26 19:34:59;;;;;;;6.40;1.40;;;;;;;15.49;67.95;101277.09;2620788;54;20119;-78
2021/08/26 19:37:24;;;;;;;3.30;1.60;;;;;;;15.35;68.22;101271.84;2619692;54;20642;-78
2021/08/26 19:39:50;;;;;;;3.97;1.90;;;;;;;15.30;68.22;101262.31;2620467;54;20670;-78
2021/08/26 19:42:15;;;;;;;2.97;1.40;;;;;;;15.32;68.40;101268.31;2620243;54;20152;-78
2021/08/26 19:44:40;;;;;;;4.97;1.40;;;;;;;15.36;67.59;101270.09;2620277;54;20135;-79
2021/08/26 19:47:05;;;;;;;3.03;1.50;;;;;;;15.31;67.89;101264.03;2620923;47;20172;-77
2021/08/26 19:49:31;;;;;;;3.47;1.50;;;;;;;15.26;68.39;101269.16;2619792;54;20211;-79
2021/08/26 19:51:56;;;;;;;6.03;1.40;;;;;;;15.21;68.87;101275.13;2620039;54;20124;-79
2021/08/26 19:54:21;;;;;;;2.70;1.50;;;;;;;15.26;68.44;101278.59;2620869;54;20139;-80
2021/08/26 19:56:47;;;;;;;4.53;1.67;;;;;;;15.27;68.78;101273.47;2621028;54;20127;-80
2021/08/26 19:59:12;;;;;;;3.40;1.57;;;;;;;15.28;68.27;101264.88;2620786;54;20132;-79
2021/08/26 20:01:37;;;;;;;4.60;1.80;;;;;;;15.25;68.74;101274.31;2621995;31;20552;-79
2021/08/26 20:04:02;;;;;;;3.63;1.43;;;;;;;15.33;68.04;101276.06;2620808;47;20151;-79
2021/08/26 20:06:28;;;;;;;4.33;1.80;;;;;;;15.20;68.10;101276.84;2620459;54;20141;-79
2021/08/26 20:08:54;;;;;;;4.73;2.00;;;;;;;15.13;68.36;101271.63;2620337;54;20215;-77
2021/08/26 20:11:19;;;;;;;3.30;1.73;;;;;;;15.17;68.63;101273.38;2619875;54;20131;-78
2021/08/26 20:13:45;;;;;;;4.93;1.50;;;;;;;15.12;68.94;101275.94;2619689;47;20191;-79